SBI7001 UNNT-UNBB
Flight info
| Callsign | SBI7001 |
|---|---|
| Flight time | 0h 31m |
| Altitude | 21000 |
| Route | ALIRO |
| Aircraft | E170/M-SDE2E3FGHIRWXY/LB1 |
Departure
| Time | 2026-04-25 15:47 |
|---|---|
| Airport | Novosibirsk Tolmachevo Airport (UNNT) |
Arrival
| Time | 2026-04-25 16:18 |
|---|---|
| Airport | Barnaul Gherman Titov International Airport (UNBB) |
| Time | Latitude | Longitude | Altitude | Speed | Heading |
|---|---|---|---|---|---|
| 2026-04-25 15:26 | 55.01098 | 82.66473 | 371 ft | 0 kts | 171° |
| 2026-04-25 15:42 | 55.01092 | 82.66475 | 371 ft | 4 kts | 171° |
| 2026-04-25 15:43 | 55.01054 | 82.66518 | 371 ft | 7 kts | 96° |
| 2026-04-25 15:43 | 55.01073 | 82.66603 | 371 ft | 9 kts | 62° |
| 2026-04-25 15:43 | 55.01133 | 82.66654 | 371 ft | 11 kts | 350° |
| 2026-04-25 15:43 | 55.01194 | 82.66639 | 371 ft | 9 kts | 353° |
| 2026-04-25 15:44 | 55.01260 | 82.66621 | 371 ft | 6 kts | 352° |
| 2026-04-25 15:44 | 55.01265 | 82.66620 | 371 ft | 0 kts | 353° |
| 2026-04-25 15:45 | 55.01283 | 82.66616 | 371 ft | 6 kts | 353° |
| 2026-04-25 15:45 | 55.01342 | 82.66609 | 371 ft | 10 kts | 4° |
| 2026-04-25 15:45 | 55.01380 | 82.66575 | 372 ft | 6 kts | 269° |
| 2026-04-25 15:45 | 55.01379 | 82.66559 | 372 ft | 0 kts | 260° |
| 2026-04-25 15:46 | 55.01379 | 82.66553 | 372 ft | 3 kts | 262° |
| 2026-04-25 15:46 | 55.01338 | 82.66104 | 370 ft | 78 kts | 262° |
| 2026-04-25 15:46 | 55.01213 | 82.64757 | 371 ft | 149 kts | 262° |
| 2026-04-25 15:46 | 55.01030 | 82.62786 | 914 ft | 170 kts | 257° |
| 2026-04-25 15:47 | 55.00795 | 82.60721 | 1906 ft | 170 kts | 253° |
| 2026-04-25 15:47 | 55.00536 | 82.58715 | 2774 ft | 176 kts | 252° |
| 2026-04-25 15:47 | 55.00258 | 82.56639 | 3538 ft | 179 kts | 252° |
| 2026-04-25 15:47 | 55.00029 | 82.54467 | 4216 ft | 193 kts | 262° |
| 2026-04-25 15:48 | 55.00202 | 82.52030 | 4812 ft | 218 kts | 287° |
| 2026-04-25 15:48 | 55.00895 | 82.49504 | 5418 ft | 242 kts | 294° |
| 2026-04-25 15:48 | 55.01690 | 82.46822 | 6256 ft | 253 kts | 294° |
| 2026-04-25 15:48 | 55.02465 | 82.44096 | 7342 ft | 249 kts | 294° |
| 2026-04-25 15:49 | 55.03223 | 82.41379 | 8346 ft | 248 kts | 294° |
| 2026-04-25 15:49 | 55.03952 | 82.38655 | 9261 ft | 249 kts | 288° |
| 2026-04-25 15:49 | 55.04224 | 82.35617 | 9871 ft | 262 kts | 266° |
| 2026-04-25 15:49 | 55.03974 | 82.32439 | 10614 ft | 267 kts | 262° |
| 2026-04-25 15:50 | 55.03695 | 82.29218 | 11474 ft | 269 kts | 261° |
| 2026-04-25 15:50 | 55.03378 | 82.26001 | 12403 ft | 270 kts | 259° |
| 2026-04-25 15:50 | 55.03042 | 82.22783 | 13384 ft | 271 kts | 258° |
| 2026-04-25 15:50 | 55.02709 | 82.19542 | 14324 ft | 273 kts | 258° |
| 2026-04-25 15:51 | 55.02360 | 82.16260 | 15157 ft | 278 kts | 257° |
| 2026-04-25 15:51 | 55.02240 | 82.15179 | 15425 ft | 280 kts | 257° |
| 2026-04-25 15:51 | 55.01581 | 82.09531 | 16782 ft | 288 kts | 257° |
| 2026-04-25 15:51 | 55.01126 | 82.06111 | 17524 ft | 294 kts | 251° |
| 2026-04-25 15:52 | 55.00076 | 82.02906 | 17660 ft | 319 kts | 229° |
| 2026-04-25 15:52 | 54.98217 | 82.00559 | 17841 ft | 347 kts | 207° |
| 2026-04-25 15:52 | 54.95801 | 81.99639 | 18366 ft | 363 kts | 188° |
| 2026-04-25 15:52 | 54.93265 | 81.99402 | 19004 ft | 368 kts | 186° |
| 2026-04-25 15:53 | 54.90684 | 81.99260 | 19048 ft | 371 kts | 184° |
| 2026-04-25 15:53 | 54.88114 | 81.99247 | 19061 ft | 368 kts | 184° |
| 2026-04-25 15:53 | 54.85605 | 81.99240 | 19496 ft | 356 kts | 184° |
| 2026-04-25 15:53 | 54.83149 | 81.99182 | 19721 ft | 352 kts | 184° |
| 2026-04-25 15:54 | 54.80705 | 81.99141 | 19892 ft | 351 kts | 184° |
| 2026-04-25 15:54 | 54.78281 | 81.99120 | 20031 ft | 355 kts | 184° |
| 2026-04-25 15:54 | 54.75785 | 81.99106 | 20180 ft | 363 kts | 184° |
| 2026-04-25 15:54 | 54.73233 | 81.99096 | 20422 ft | 370 kts | 183° |
| 2026-04-25 15:55 | 54.71481 | 81.99089 | 20617 ft | 374 kts | 183° |
| 2026-04-25 15:55 | 54.68014 | 81.99083 | 21038 ft | 379 kts | 183° |
| 2026-04-25 15:55 | 54.65338 | 81.99089 | 21094 ft | 388 kts | 182° |
| 2026-04-25 15:55 | 54.62632 | 81.99118 | 21090 ft | 390 kts | 182° |
| 2026-04-25 15:56 | 54.59917 | 81.99235 | 21084 ft | 392 kts | 177° |
| 2026-04-25 15:56 | 54.57246 | 82.00310 | 21080 ft | 397 kts | 166° |
| 2026-04-25 15:56 | 54.54615 | 82.01777 | 21089 ft | 398 kts | 165° |
| 2026-04-25 15:56 | 54.51991 | 82.03282 | 21070 ft | 398 kts | 165° |
| 2026-04-25 15:57 | 54.49365 | 82.04787 | 21074 ft | 397 kts | 165° |
| 2026-04-25 15:57 | 54.46745 | 82.06278 | 21073 ft | 397 kts | 165° |
| 2026-04-25 15:57 | 54.44119 | 82.07767 | 21074 ft | 397 kts | 165° |
| 2026-04-25 15:57 | 54.41493 | 82.09252 | 21076 ft | 397 kts | 165° |
| 2026-04-25 15:58 | 54.38869 | 82.10732 | 21075 ft | 397 kts | 165° |
| 2026-04-25 15:58 | 54.36290 | 82.12438 | 21082 ft | 400 kts | 156° |
| 2026-04-25 15:58 | 54.33754 | 82.14355 | 21091 ft | 397 kts | 164° |
| 2026-04-25 15:58 | 54.31113 | 82.15708 | 21093 ft | 396 kts | 167° |
| 2026-04-25 15:59 | 54.28467 | 82.16985 | 21080 ft | 396 kts | 167° |
| 2026-04-25 15:59 | 54.25827 | 82.18346 | 21083 ft | 396 kts | 166° |
| 2026-04-25 15:59 | 54.23238 | 82.19744 | 21087 ft | 396 kts | 165° |
| 2026-04-25 15:59 | 54.20615 | 82.21189 | 21083 ft | 396 kts | 165° |
| 2026-04-25 16:00 | 54.17995 | 82.22641 | 21087 ft | 396 kts | 165° |
| 2026-04-25 16:00 | 54.17108 | 82.23133 | 21084 ft | 396 kts | 165° |
| 2026-04-25 16:00 | 54.12756 | 82.25544 | 21090 ft | 396 kts | 165° |
| 2026-04-25 16:00 | 54.10142 | 82.26991 | 21092 ft | 392 kts | 165° |
| 2026-04-25 16:01 | 54.07589 | 82.28405 | 21074 ft | 380 kts | 165° |
| 2026-04-25 16:01 | 54.05146 | 82.30088 | 21016 ft | 388 kts | 155° |
| 2026-04-25 16:01 | 54.03122 | 82.33051 | 21154 ft | 382 kts | 131° |
| 2026-04-25 16:01 | 54.01667 | 82.36938 | 20994 ft | 399 kts | 121° |
| 2026-04-25 16:02 | 54.00516 | 82.41173 | 21086 ft | 388 kts | 117° |
| 2026-04-25 16:02 | 53.99405 | 82.45426 | 21210 ft | 396 kts | 117° |
| 2026-04-25 16:02 | 53.98268 | 82.49684 | 21117 ft | 395 kts | 117° |
| 2026-04-25 16:02 | 53.97125 | 82.53917 | 21147 ft | 397 kts | 118° |
| 2026-04-25 16:03 | 53.95960 | 82.58203 | 20643 ft | 397 kts | 118° |
| 2026-04-25 16:03 | 53.94808 | 82.62431 | 20215 ft | 392 kts | 118° |
| 2026-04-25 16:03 | 53.93664 | 82.66611 | 19802 ft | 389 kts | 118° |
| 2026-04-25 16:03 | 53.92526 | 82.70761 | 19392 ft | 387 kts | 118° |
| 2026-04-25 16:04 | 53.91391 | 82.74888 | 18981 ft | 385 kts | 118° |
| 2026-04-25 16:04 | 53.90274 | 82.78943 | 18577 ft | 384 kts | 119° |
| 2026-04-25 16:04 | 53.89511 | 82.81709 | 18301 ft | 383 kts | 119° |
| 2026-04-25 16:04 | 53.88024 | 82.87094 | 17806 ft | 378 kts | 119° |
| 2026-04-25 16:05 | 53.86907 | 82.91128 | 17564 ft | 378 kts | 119° |
| 2026-04-25 16:05 | 53.85788 | 82.95160 | 17270 ft | 378 kts | 118° |
| 2026-04-25 16:05 | 53.83940 | 83.01816 | 15721 ft | 371 kts | 118° |
| 2026-04-25 16:06 | 53.82846 | 83.05748 | 14800 ft | 366 kts | 118° |
| 2026-04-25 16:06 | 53.81777 | 83.09586 | 13907 ft | 354 kts | 118° |
| 2026-04-25 16:06 | 53.80742 | 83.13295 | 12922 ft | 344 kts | 118° |
| 2026-04-25 16:06 | 53.79732 | 83.16903 | 11967 ft | 336 kts | 118° |
| 2026-04-25 16:07 | 53.78745 | 83.20421 | 11059 ft | 328 kts | 118° |
| 2026-04-25 16:07 | 53.78096 | 83.22733 | 10465 ft | 324 kts | 118° |
| 2026-04-25 16:07 | 53.76521 | 83.26952 | 9216 ft | 313 kts | 131° |
| 2026-04-25 16:07 | 53.75141 | 83.29755 | 8275 ft | 307 kts | 133° |
| 2026-04-25 16:08 | 53.73760 | 83.32472 | 7360 ft | 302 kts | 133° |
| 2026-04-25 16:08 | 53.72416 | 83.35164 | 6464 ft | 297 kts | 131° |
| 2026-04-25 16:08 | 53.71129 | 83.37789 | 5921 ft | 280 kts | 131° |
| 2026-04-25 16:08 | 53.69928 | 83.40262 | 5491 ft | 266 kts | 131° |
| 2026-04-25 16:09 | 53.68774 | 83.42635 | 5066 ft | 260 kts | 131° |
| 2026-04-25 16:09 | 53.67632 | 83.44983 | 4685 ft | 257 kts | 131° |
| 2026-04-25 16:09 | 53.66489 | 83.47330 | 4553 ft | 260 kts | 131° |
| 2026-04-25 16:09 | 53.65340 | 83.49692 | 4380 ft | 260 kts | 131° |
| 2026-04-25 16:10 | 53.64206 | 83.52046 | 4220 ft | 257 kts | 131° |
| 2026-04-25 16:10 | 53.63072 | 83.54395 | 3956 ft | 258 kts | 131° |
| 2026-04-25 16:10 | 53.61943 | 83.56720 | 3709 ft | 255 kts | 131° |
| 2026-04-25 16:10 | 53.60820 | 83.59022 | 3462 ft | 252 kts | 131° |
| 2026-04-25 16:11 | 53.59711 | 83.61287 | 3237 ft | 250 kts | 131° |
| 2026-04-25 16:11 | 53.58618 | 83.63519 | 3144 ft | 243 kts | 131° |
| 2026-04-25 16:11 | 53.57561 | 83.65676 | 3148 ft | 237 kts | 131° |
| 2026-04-25 16:11 | 53.56509 | 83.67814 | 3146 ft | 238 kts | 131° |
| 2026-04-25 16:12 | 53.55447 | 83.69972 | 2973 ft | 241 kts | 131° |
| 2026-04-25 16:12 | 53.54382 | 83.72137 | 2820 ft | 239 kts | 131° |
| 2026-04-25 16:12 | 53.53329 | 83.74271 | 2672 ft | 236 kts | 133° |
| 2026-04-25 16:12 | 53.52560 | 83.75564 | 2497 ft | 236 kts | 144° |
| 2026-04-25 16:13 | 53.50696 | 83.77354 | 2166 ft | 231 kts | 158° |
| 2026-04-25 16:13 | 53.49232 | 83.78374 | 1939 ft | 220 kts | 160° |
| 2026-04-25 16:13 | 53.47809 | 83.78762 | 2007 ft | 196 kts | 184° |
| 2026-04-25 16:13 | 53.46556 | 83.78283 | 1970 ft | 176 kts | 201° |
| 2026-04-25 16:14 | 53.45520 | 83.77309 | 1926 ft | 168 kts | 215° |
| 2026-04-25 16:14 | 53.44683 | 83.75950 | 1951 ft | 166 kts | 227° |
| 2026-04-25 16:14 | 53.43944 | 83.74446 | 2033 ft | 171 kts | 228° |
| 2026-04-25 16:14 | 53.43205 | 83.72890 | 2030 ft | 170 kts | 230° |
| 2026-04-25 16:15 | 53.42451 | 83.71365 | 2017 ft | 169 kts | 218° |
| 2026-04-25 16:15 | 53.41457 | 83.70375 | 2030 ft | 163 kts | 207° |
| 2026-04-25 16:15 | 53.40527 | 83.69470 | 2002 ft | 147 kts | 215° |
| 2026-04-25 16:15 | 53.40007 | 83.68045 | 1944 ft | 142 kts | 249° |
| 2026-04-25 16:16 | 53.39636 | 83.66526 | 2182 ft | 148 kts | 241° |
| 2026-04-25 16:16 | 53.39183 | 83.65015 | 2086 ft | 142 kts | 241° |
| 2026-04-25 16:16 | 53.38758 | 83.63506 | 1878 ft | 142 kts | 241° |
| 2026-04-25 16:16 | 53.38339 | 83.62012 | 1676 ft | 142 kts | 243° |
| 2026-04-25 16:17 | 53.37947 | 83.60504 | 1487 ft | 142 kts | 244° |
| 2026-04-25 16:17 | 53.37562 | 83.58975 | 1245 ft | 143 kts | 247° |
| 2026-04-25 16:17 | 53.37199 | 83.57450 | 1050 ft | 141 kts | 245° |
| 2026-04-25 16:17 | 53.36814 | 83.55946 | 858 ft | 139 kts | 246° |
| 2026-04-25 16:18 | 53.36476 | 83.54595 | 833 ft | 108 kts | 248° |
| 2026-04-25 16:18 | 53.36384 | 83.54238 | 831 ft | 90 kts | 246° |
| 2026-04-25 16:18 | 53.36177 | 83.53399 | 835 ft | 17 kts | 251° |
| 2026-04-25 16:18 | 53.36135 | 83.53262 | 833 ft | 13 kts | 212° |
| 2026-04-25 16:19 | 53.36108 | 83.53187 | 831 ft | 5 kts | 321° |
| 2026-04-25 16:19 | 53.36132 | 83.53204 | 833 ft | 6 kts | 66° |
| 2026-04-25 16:19 | 53.36154 | 83.53297 | 834 ft | 11 kts | 68° |
| 2026-04-25 16:20 | 53.36221 | 83.53579 | 834 ft | 21 kts | 68° |
| 2026-04-25 16:20 | 53.36293 | 83.53888 | 835 ft | 20 kts | 60° |
| 2026-04-25 16:20 | 53.36395 | 83.54263 | 831 ft | 18 kts | 69° |
| 2026-04-25 16:21 | 53.36437 | 83.54442 | 832 ft | 16 kts | 64° |
| 2026-04-25 16:21 | 53.36487 | 83.54637 | 834 ft | 20 kts | 67° |
| 2026-04-25 16:21 | 53.36544 | 83.54870 | 834 ft | 23 kts | 68° |
| 2026-04-25 16:21 | 53.36605 | 83.55126 | 833 ft | 24 kts | 67° |
| 2026-04-25 16:22 | 53.36672 | 83.55383 | 836 ft | 24 kts | 65° |
| 2026-04-25 16:22 | 53.36737 | 83.55650 | 834 ft | 25 kts | 68° |
| 2026-04-25 16:22 | 53.36777 | 83.55824 | 834 ft | 12 kts | 69° |
| 2026-04-25 16:22 | 53.36768 | 83.55962 | 839 ft | 12 kts | 133° |
| 2026-04-25 16:23 | 53.36691 | 83.56006 | 834 ft | 13 kts | 181° |
| 2026-04-25 16:23 | 53.36623 | 83.55926 | 837 ft | 14 kts | 244° |
| 2026-04-25 16:23 | 53.36589 | 83.55771 | 838 ft | 14 kts | 247° |
| 2026-04-25 16:23 | 53.36551 | 83.55618 | 835 ft | 15 kts | 247° |
| 2026-04-25 16:24 | 53.36513 | 83.55467 | 836 ft | 13 kts | 246° |
| 2026-04-25 16:24 | 53.36477 | 83.55329 | 838 ft | 13 kts | 246° |
| 2026-04-25 16:24 | 53.36439 | 83.55173 | 832 ft | 16 kts | 246° |
| 2026-04-25 16:24 | 53.36404 | 83.55036 | 834 ft | 8 kts | 248° |
| 2026-04-25 16:25 | 53.36380 | 83.54936 | 831 ft | 11 kts | 248° |
| 2026-04-25 16:25 | 53.36360 | 83.54855 | 831 ft | 9 kts | 248° |
| 2026-04-25 16:25 | 53.36329 | 83.54728 | 835 ft | 6 kts | 235° |
| 2026-04-25 16:25 | 53.36297 | 83.54709 | 833 ft | 4 kts | 166° |
| 2026-04-25 16:26 | 53.36282 | 83.54728 | 833 ft | 1 kts | 123° |
| 2026-04-25 16:26 | 53.36275 | 83.54769 | 832 ft | 5 kts | 86° |
| 2026-04-25 16:26 | 53.36288 | 83.54831 | 837 ft | 4 kts | 68° |
| 2026-04-25 16:26 | 53.36292 | 83.54850 | 837 ft | 0 kts | 68° |